Ana Sayfa
METAR-TAF:

METAR-TAF

Havaalanları :

Zafer Havalimanı

Kütahya, Türkiye

Enlem: 39-06-41N, Boylam: 30-07-48E, yükseklik: 1013 m

Güncel hava durumu gözlemi

Rapor saat 04:50 UTC de 59 dakika önce yapıldı.
Sakin rüzgar
Sıcaklık 7°C
Nem 87%
Basınç 1022 hPa
Görüş mesafesi 10 km veya daha fazla
1500 m altında bulut yok ve kümülonimbus yok

METAR: LTBZ 200450Z 00000KT CAVOK 07/05 Q1022

Saat: 08:49 (05:49 UTC)

Tahmin

Rapor saat 04:40 UTC de 1 saat ve 9 dakika önce yapıldı.
Ayın 20'si saat 06 UTC'den ayın 20'si saat 15 UTC'ye kadar geçerli Tahmin
Rüzgar değişken yönden 2 kt
Görüş mesafesi 10 km veya daha fazla
4000 ft yükseklikte parçalı bulutlu
10000 ft yükseklikte parçalı bulutlu

TAF: LTBZ 200440Z 2006/2015 VRB02KT 9999 SCT040 SCT100

4.000'den fazla havaalanı için hava durumu gözlemleri ve tahminleri (METAR ve TAF raporları).

Kullanılabilir istasyonlar harita üzerinde sarı ve kırmızı noktalarla gösterilir.

İstasyonun adını görmek için fareyi noktanın üzerinde gezdirin.

Sonrasında hava gözlem ve tahminlerini görmek için tıklayın.

Haritayı değiştirmek için: yaklaştırmak için siyah artı işaretli yeşil düğmeye ve uzaklaştırmak için de eksi işaretli düğmeye hızla tıklayın; bitişik haritalar için yeşil okları kullanın.


METAR-TAF: